sensor_id;sensor_type;location;lat;lon;timestamp;P1;durP1;ratioP1;P2;durP2;ratioP2
74229;SDS011;62589;12.568;99.958;2022-09-09T00:01:28;3.38;;;0.22;;
74229;SDS011;62589;12.568;99.958;2022-09-09T00:09:46;2.47;;;0.32;;
74229;SDS011;62589;12.568;99.958;2022-09-09T00:12:16;1.35;;;0.10;;
74229;SDS011;62589;12.568;99.958;2022-09-09T00:14:56;1.27;;;0.32;;
74229;SDS011;62589;12.568;99.958;2022-09-09T00:17:38;1.20;;;0.15;;
74229;SDS011;62589;12.568;99.958;2022-09-09T00:20:21;2.20;;;0.20;;
74229;SDS011;62589;12.568;99.958;2022-09-09T00:26:03;0.50;;;0.00;;
74229;SDS011;62589;12.568;99.958;2022-09-09T00:28:52;2.10;;;0.17;;
74229;SDS011;62589;12.568;99.958;2022-09-09T00:31:25;0.85;;;0.20;;
74229;SDS011;62589;12.568;99.958;2022-09-09T00:33:55;1.25;;;0.22;;
74229;SDS011;62589;12.568;99.958;2022-09-09T00:36:28;1.02;;;0.10;;
74229;SDS011;62589;12.568;99.958;2022-09-09T00:39:00;1.42;;;0.35;;
74229;SDS011;62589;12.568;99.958;2022-09-09T00:44:34;1.17;;;0.17;;
74229;SDS011;62589;12.568;99.958;2022-09-09T00:47:12;1.20;;;0.20;;
74229;SDS011;62589;12.568;99.958;2022-09-09T00:58:42;1.05;;;0.20;;
74229;SDS011;62589;12.568;99.958;2022-09-09T01:01:17;2.42;;;0.10;;
74229;SDS011;62589;12.568;99.958;2022-09-09T01:03:53;2.72;;;0.30;;
74229;SDS011;62589;12.568;99.958;2022-09-09T01:12:10;0.90;;;0.20;;
74229;SDS011;62589;12.568;99.958;2022-09-09T01:14:51;0.73;;;0.10;;
74229;SDS011;62589;12.568;99.958;2022-09-09T01:17:32;1.50;;;0.10;;
74229;SDS011;62589;12.568;99.958;2022-09-09T01:23:00;3.17;;;0.20;;
74229;SDS011;62589;12.568;99.958;2022-09-09T01:28:40;0.63;;;0.20;;
74229;SDS011;62589;12.568;99.958;2022-09-09T01:31:15;3.17;;;0.20;;
74229;SDS011;62589;12.568;99.958;2022-09-09T01:33:45;3.30;;;0.17;;
74229;SDS011;62589;12.568;99.958;2022-09-09T01:36:14;1.17;;;0.17;;
74229;SDS011;62589;12.568;99.958;2022-09-09T01:38:53;2.88;;;0.20;;
74229;SDS011;62589;12.568;99.958;2022-09-09T01:41:20;1.30;;;0.30;;
74229;SDS011;62589;12.568;99.958;2022-09-09T01:43:47;3.38;;;0.30;;
74229;SDS011;62589;12.568;99.958;2022-09-09T01:46:15;1.92;;;0.25;;
74229;SDS011;62589;12.568;99.958;2022-09-09T01:48:43;2.90;;;0.28;;
74229;SDS011;62589;12.568;99.958;2022-09-09T01:51:11;2.47;;;0.32;;
74229;SDS011;62589;12.568;99.958;2022-09-09T01:53:38;3.83;;;0.55;;
74229;SDS011;62589;12.568;99.958;2022-09-09T01:56:19;3.88;;;0.47;;
74229;SDS011;62589;12.568;99.958;2022-09-09T01:59:18;2.45;;;0.40;;
74229;SDS011;62589;12.568;99.958;2022-09-09T02:01:59;3.38;;;0.70;;
74229;SDS011;62589;12.568;99.958;2022-09-09T02:04:50;1.52;;;0.20;;
74229;SDS011;62589;12.568;99.958;2022-09-09T02:07:29;3.78;;;0.28;;
74229;SDS011;62589;12.568;99.958;2022-09-09T02:15:47;2.55;;;0.55;;
74229;SDS011;62589;12.568;99.958;2022-09-09T02:18:24;1.02;;;0.30;;
74229;SDS011;62589;12.568;99.958;2022-09-09T02:20:56;1.13;;;0.60;;
74229;SDS011;62589;12.568;99.958;2022-09-09T02:23:25;2.63;;;0.50;;
74229;SDS011;62589;12.568;99.958;2022-09-09T02:25:52;1.95;;;0.88;;
74229;SDS011;62589;12.568;99.958;2022-09-09T02:28:21;3.40;;;0.82;;
74229;SDS011;62589;12.568;99.958;2022-09-09T02:30:51;3.88;;;1.00;;
74229;SDS011;62589;12.568;99.958;2022-09-09T02:33:24;3.17;;;0.70;;
74229;SDS011;62589;12.568;99.958;2022-09-09T02:35:56;2.42;;;0.63;;
74229;SDS011;62589;12.568;99.958;2022-09-09T02:38:29;3.45;;;0.60;;
74229;SDS011;62589;12.568;99.958;2022-09-09T02:41:00;1.95;;;0.45;;
74229;SDS011;62589;12.568;99.958;2022-09-09T02:43:31;2.15;;;0.50;;
74229;SDS011;62589;12.568;99.958;2022-09-09T02:46:03;2.70;;;0.55;;
74229;SDS011;62589;12.568;99.958;2022-09-09T02:48:56;2.22;;;0.50;;
74229;SDS011;62589;12.568;99.958;2022-09-09T02:51:56;1.50;;;0.30;;
74229;SDS011;62589;12.568;99.958;2022-09-09T02:54:32;0.93;;;0.45;;
74229;SDS011;62589;12.568;99.958;2022-09-09T02:57:21;0.77;;;0.25;;
74229;SDS011;62589;12.568;99.958;2022-09-09T02:59:53;1.85;;;0.30;;
74229;SDS011;62589;12.568;99.958;2022-09-09T03:02:22;0.95;;;0.20;;
74229;SDS011;62589;12.568;99.958;2022-09-09T03:04:49;1.50;;;0.13;;
74229;SDS011;62589;12.568;99.958;2022-09-09T03:07:17;1.60;;;0.30;;
74229;SDS011;62589;12.568;99.958;2022-09-09T03:09:44;1.90;;;0.10;;
74229;SDS011;62589;12.568;99.958;2022-09-09T03:12:11;1.17;;;0.15;;
74229;SDS011;62589;12.568;99.958;2022-09-09T03:14:38;2.15;;;0.22;;
74229;SDS011;62589;12.568;99.958;2022-09-09T03:17:05;3.42;;;0.15;;
74229;SDS011;62589;12.568;99.958;2022-09-09T03:19:32;1.67;;;0.30;;
74229;SDS011;62589;12.568;99.958;2022-09-09T03:22:00;0.57;;;0.20;;
74229;SDS011;62589;12.568;99.958;2022-09-09T03:24:26;1.67;;;0.10;;
74229;SDS011;62589;12.568;99.958;2022-09-09T03:26:53;1.40;;;0.40;;
74229;SDS011;62589;12.568;99.958;2022-09-09T03:29:21;0.63;;;0.20;;
74229;SDS011;62589;12.568;99.958;2022-09-09T03:31:47;1.60;;;0.28;;
74229;SDS011;62589;12.568;99.958;2022-09-09T03:34:13;1.17;;;0.20;;
74229;SDS011;62589;12.568;99.958;2022-09-09T03:36:40;1.27;;;0.30;;
74229;SDS011;62589;12.568;99.958;2022-09-09T03:39:06;2.20;;;0.20;;
74229;SDS011;62589;12.568;99.958;2022-09-09T03:41:33;2.65;;;0.15;;
74229;SDS011;62589;12.568;99.958;2022-09-09T03:43:59;1.75;;;0.25;;
74229;SDS011;62589;12.568;99.958;2022-09-09T03:46:26;0.20;;;0.08;;
74229;SDS011;62589;12.568;99.958;2022-09-09T03:48:52;0.47;;;0.08;;
74229;SDS011;62589;12.568;99.958;2022-09-09T03:51:19;0.43;;;0.10;;
74229;SDS011;62589;12.568;99.958;2022-09-09T03:53:46;0.85;;;0.10;;
74229;SDS011;62589;12.568;99.958;2022-09-09T03:56:13;1.98;;;0.00;;
74229;SDS011;62589;12.568;99.958;2022-09-09T03:58:40;1.70;;;0.10;;
74229;SDS011;62589;12.568;99.958;2022-09-09T04:01:08;0.20;;;0.00;;
74229;SDS011;62589;12.568;99.958;2022-09-09T04:03:38;0.63;;;0.10;;
74229;SDS011;62589;12.568;99.958;2022-09-09T04:06:06;1.00;;;0.10;;
74229;SDS011;62589;12.568;99.958;2022-09-09T04:08:34;0.47;;;0.00;;
74229;SDS011;62589;12.568;99.958;2022-09-09T04:11:01;3.75;;;0.10;;
74229;SDS011;62589;12.568;99.958;2022-09-09T04:13:32;1.20;;;0.10;;
74229;SDS011;62589;12.568;99.958;2022-09-09T04:16:05;0.60;;;0.08;;
74229;SDS011;62589;12.568;99.958;2022-09-09T04:18:34;1.00;;;0.20;;
74229;SDS011;62589;12.568;99.958;2022-09-09T04:21:01;1.10;;;0.10;;
74229;SDS011;62589;12.568;99.958;2022-09-09T04:23:28;1.38;;;0.15;;
74229;SDS011;62589;12.568;99.958;2022-09-09T04:25:56;1.13;;;0.20;;
74229;SDS011;62589;12.568;99.958;2022-09-09T04:28:24;4.57;;;0.05;;
74229;SDS011;62589;12.568;99.958;2022-09-09T04:30:52;0.68;;;0.10;;
74229;SDS011;62589;12.568;99.958;2022-09-09T04:33:19;2.88;;;0.15;;
74229;SDS011;62589;12.568;99.958;2022-09-09T04:35:47;1.20;;;0.13;;
74229;SDS011;62589;12.568;99.958;2022-09-09T04:38:15;1.08;;;0.10;;
74229;SDS011;62589;12.568;99.958;2022-09-09T04:40:46;1.33;;;0.20;;
74229;SDS011;62589;12.568;99.958;2022-09-09T04:43:13;1.52;;;0.10;;
74229;SDS011;62589;12.568;99.958;2022-09-09T04:45:40;0.60;;;0.20;;
74229;SDS011;62589;12.568;99.958;2022-09-09T04:48:08;0.75;;;0.10;;
74229;SDS011;62589;12.568;99.958;2022-09-09T04:50:38;3.72;;;0.43;;
74229;SDS011;62589;12.568;99.958;2022-09-09T04:53:05;2.70;;;0.25;;
74229;SDS011;62589;12.568;99.958;2022-09-09T04:55:33;0.43;;;0.10;;
74229;SDS011;62589;12.568;99.958;2022-09-09T04:58:07;0.82;;;0.20;;
74229;SDS011;62589;12.568;99.958;2022-09-09T05:00:34;0.57;;;0.00;;
74229;SDS011;62589;12.568;99.958;2022-09-09T05:03:05;0.40;;;0.10;;
74229;SDS011;62589;12.568;99.958;2022-09-09T05:05:33;0.80;;;0.13;;
74229;SDS011;62589;12.568;99.958;2022-09-09T05:08:06;1.05;;;0.10;;
74229;SDS011;62589;12.568;99.958;2022-09-09T05:10:36;1.15;;;0.22;;
74229;SDS011;62589;12.568;99.958;2022-09-09T05:13:05;0.73;;;0.10;;
74229;SDS011;62589;12.568;99.958;2022-09-09T05:15:32;2.05;;;0.20;;
74229;SDS011;62589;12.568;99.958;2022-09-09T05:17:59;0.90;;;0.20;;
74229;SDS011;62589;12.568;99.958;2022-09-09T05:20:27;2.15;;;0.00;;
74229;SDS011;62589;12.568;99.958;2022-09-09T05:22:55;0.93;;;0.10;;
74229;SDS011;62589;12.568;99.958;2022-09-09T05:25:23;0.65;;;0.10;;
74229;SDS011;62589;12.568;99.958;2022-09-09T05:27:51;0.55;;;0.00;;
74229;SDS011;62589;12.568;99.958;2022-09-09T05:30:19;0.52;;;0.10;;
74229;SDS011;62589;12.568;99.958;2022-09-09T05:32:50;0.50;;;0.08;;
74229;SDS011;62589;12.568;99.958;2022-09-09T05:35:17;1.10;;;0.17;;
74229;SDS011;62589;12.568;99.958;2022-09-09T05:37:44;1.10;;;0.10;;
74229;SDS011;62589;12.568;99.958;2022-09-09T05:40:11;0.55;;;0.05;;
74229;SDS011;62589;12.568;99.958;2022-09-09T05:42:38;0.55;;;0.05;;
74229;SDS011;62589;12.568;99.958;2022-09-09T05:45:06;0.63;;;0.30;;
74229;SDS011;62589;12.568;99.958;2022-09-09T05:47:34;0.95;;;0.00;;
74229;SDS011;62589;12.568;99.958;2022-09-09T05:50:03;0.28;;;0.10;;
74229;SDS011;62589;12.568;99.958;2022-09-09T05:52:30;1.63;;;0.10;;
74229;SDS011;62589;12.568;99.958;2022-09-09T05:54:57;0.85;;;0.15;;
74229;SDS011;62589;12.568;99.958;2022-09-09T05:57:25;0.30;;;0.00;;
74229;SDS011;62589;12.568;99.958;2022-09-09T05:59:52;0.55;;;0.05;;
74229;SDS011;62589;12.568;99.958;2022-09-09T06:02:19;2.85;;;0.10;;
74229;SDS011;62589;12.568;99.958;2022-09-09T06:04:45;0.30;;;0.00;;
74229;SDS011;62589;12.568;99.958;2022-09-09T06:07:13;0.13;;;0.00;;
74229;SDS011;62589;12.568;99.958;2022-09-09T06:09:40;0.40;;;0.00;;
74229;SDS011;62589;12.568;99.958;2022-09-09T06:12:07;1.65;;;0.30;;
74229;SDS011;62589;12.568;99.958;2022-09-09T06:14:34;0.63;;;0.10;;
74229;SDS011;62589;12.568;99.958;2022-09-09T06:17:02;0.32;;;0.00;;
74229;SDS011;62589;12.568;99.958;2022-09-09T06:19:29;0.80;;;0.08;;
74229;SDS011;62589;12.568;99.958;2022-09-09T06:21:56;0.75;;;0.10;;
74229;SDS011;62589;12.568;99.958;2022-09-09T06:24:24;0.13;;;0.00;;
74229;SDS011;62589;12.568;99.958;2022-09-09T06:26:51;0.63;;;0.10;;
74229;SDS011;62589;12.568;99.958;2022-09-09T06:29:18;1.90;;;0.57;;
74229;SDS011;62589;12.568;99.958;2022-09-09T06:31:45;1.02;;;0.15;;
74229;SDS011;62589;12.568;99.958;2022-09-09T06:34:13;0.85;;;0.13;;
74229;SDS011;62589;12.568;99.958;2022-09-09T06:36:40;1.30;;;0.10;;
74229;SDS011;62589;12.568;99.958;2022-09-09T06:39:07;1.48;;;0.20;;
74229;SDS011;62589;12.568;99.958;2022-09-09T06:41:36;1.05;;;0.10;;
74229;SDS011;62589;12.568;99.958;2022-09-09T06:44:04;0.52;;;0.20;;
74229;SDS011;62589;12.568;99.958;2022-09-09T06:46:31;1.85;;;0.52;;
74229;SDS011;62589;12.568;99.958;2022-09-09T06:48:58;1.25;;;0.45;;
74229;SDS011;62589;12.568;99.958;2022-09-09T06:51:29;1.30;;;0.30;;
74229;SDS011;62589;12.568;99.958;2022-09-09T06:53:59;1.00;;;0.35;;
74229;SDS011;62589;12.568;99.958;2022-09-09T06:56:28;3.28;;;0.45;;
74229;SDS011;62589;12.568;99.958;2022-09-09T06:58:58;3.13;;;0.38;;
74229;SDS011;62589;12.568;99.958;2022-09-09T07:01:28;4.55;;;0.60;;
74229;SDS011;62589;12.568;99.958;2022-09-09T07:03:57;2.53;;;0.22;;
74229;SDS011;62589;12.568;99.958;2022-09-09T07:06:26;2.25;;;0.35;;
74229;SDS011;62589;12.568;99.958;2022-09-09T07:09:01;3.72;;;0.30;;
74229;SDS011;62589;12.568;99.958;2022-09-09T07:11:32;2.70;;;0.20;;
74229;SDS011;62589;12.568;99.958;2022-09-09T07:14:02;4.70;;;0.55;;
74229;SDS011;62589;12.568;99.958;2022-09-09T07:16:30;1.48;;;0.25;;
74229;SDS011;62589;12.568;99.958;2022-09-09T07:18:58;1.52;;;0.52;;
74229;SDS011;62589;12.568;99.958;2022-09-09T07:21:26;4.13;;;0.30;;
74229;SDS011;62589;12.568;99.958;2022-09-09T07:23:54;1.98;;;0.57;;
74229;SDS011;62589;12.568;99.958;2022-09-09T07:26:22;1.63;;;0.50;;
74229;SDS011;62589;12.568;99.958;2022-09-09T07:28:51;1.33;;;0.30;;
74229;SDS011;62589;12.568;99.958;2022-09-09T07:31:19;2.80;;;2.53;;
74229;SDS011;62589;12.568;99.958;2022-09-09T07:33:51;1.92;;;0.50;;
74229;SDS011;62589;12.568;99.958;2022-09-09T07:38:29;2.00;;;0.30;;
74229;SDS011;62589;12.568;99.958;2022-09-09T07:41:04;1.70;;;0.40;;
74229;SDS011;62589;12.568;99.958;2022-09-09T07:43:44;0.75;;;0.20;;
74229;SDS011;62589;12.568;99.958;2022-09-09T07:46:13;1.42;;;0.25;;
74229;SDS011;62589;12.568;99.958;2022-09-09T07:48:45;1.48;;;0.30;;
74229;SDS011;62589;12.568;99.958;2022-09-09T07:51:17;1.88;;;0.20;;
74229;SDS011;62589;12.568;99.958;2022-09-09T07:53:48;1.27;;;0.10;;
74229;SDS011;62589;12.568;99.958;2022-09-09T07:56:21;1.90;;;0.38;;
74229;SDS011;62589;12.568;99.958;2022-09-09T07:58:48;0.93;;;0.20;;
74229;SDS011;62589;12.568;99.958;2022-09-09T08:01:18;0.50;;;0.10;;
74229;SDS011;62589;12.568;99.958;2022-09-09T08:03:52;1.20;;;0.10;;
74229;SDS011;62589;12.568;99.958;2022-09-09T08:06:25;1.30;;;0.30;;
74229;SDS011;62589;12.568;99.958;2022-09-09T08:08:53;1.15;;;0.20;;
74229;SDS011;62589;12.568;99.958;2022-09-09T08:11:22;0.75;;;0.28;;
74229;SDS011;62589;12.568;99.958;2022-09-09T08:13:51;0.75;;;0.10;;
74229;SDS011;62589;12.568;99.958;2022-09-09T08:16:23;0.63;;;0.10;;
74229;SDS011;62589;12.568;99.958;2022-09-09T08:18:52;1.95;;;0.25;;
74229;SDS011;62589;12.568;99.958;2022-09-09T08:21:21;0.20;;;0.10;;
74229;SDS011;62589;12.568;99.958;2022-09-09T08:23:52;1.90;;;0.10;;
74229;SDS011;62589;12.568;99.958;2022-09-09T08:26:21;1.50;;;0.30;;
74229;SDS011;62589;12.568;99.958;2022-09-09T08:28:54;0.60;;;0.10;;
74229;SDS011;62589;12.568;99.958;2022-09-09T08:31:23;1.65;;;0.10;;
74229;SDS011;62589;12.568;99.958;2022-09-09T08:34:10;2.13;;;0.30;;
74229;SDS011;62589;12.568;99.958;2022-09-09T08:36:39;0.90;;;0.10;;
74229;SDS011;62589;12.568;99.958;2022-09-09T08:39:08;1.48;;;0.28;;
74229;SDS011;62589;12.568;99.958;2022-09-09T08:52:17;1.20;;;0.20;;
74229;SDS011;62589;12.568;99.958;2022-09-09T08:57:19;1.30;;;0.20;;
74229;SDS011;62589;12.568;99.958;2022-09-09T08:59:53;0.70;;;0.40;;
74229;SDS011;62589;12.568;99.958;2022-09-09T09:08:22;0.85;;;0.20;;
74229;SDS011;62589;12.568;99.958;2022-09-09T09:11:03;2.30;;;0.40;;
74229;SDS011;62589;12.568;99.958;2022-09-09T09:19:15;0.55;;;0.15;;
74229;SDS011;62589;12.568;99.958;2022-09-09T09:21:44;1.58;;;0.20;;
74229;SDS011;62589;12.568;99.958;2022-09-09T09:27:32;2.97;;;0.35;;
74229;SDS011;62589;12.568;99.958;2022-09-09T09:30:17;1.08;;;0.60;;
74229;SDS011;62589;12.568;99.958;2022-09-09T09:32:52;0.55;;;0.10;;
74229;SDS011;62589;12.568;99.958;2022-09-09T09:35:24;1.83;;;0.17;;
74229;SDS011;62589;12.568;99.958;2022-09-09T09:37:51;3.17;;;0.28;;
74229;SDS011;62589;12.568;99.958;2022-09-09T09:40:20;1.05;;;0.20;;
74229;SDS011;62589;12.568;99.958;2022-09-09T09:42:56;1.23;;;0.17;;
74229;SDS011;62589;12.568;99.958;2022-09-09T09:45:32;2.17;;;0.60;;
74229;SDS011;62589;12.568;99.958;2022-09-09T09:48:09;2.67;;;0.50;;
74229;SDS011;62589;12.568;99.958;2022-09-09T09:53:34;0.75;;;0.20;;
74229;SDS011;62589;12.568;99.958;2022-09-09T09:56:08;1.40;;;0.30;;
74229;SDS011;62589;12.568;99.958;2022-09-09T10:01:23;2.03;;;0.22;;
74229;SDS011;62589;12.568;99.958;2022-09-09T10:06:51;2.25;;;0.30;;
74229;SDS011;62589;12.568;99.958;2022-09-09T10:09:25;1.63;;;0.20;;
74229;SDS011;62589;12.568;99.958;2022-09-09T10:12:02;3.67;;;0.20;;
74229;SDS011;62589;12.568;99.958;2022-09-09T10:14:51;2.88;;;0.20;;
74229;SDS011;62589;12.568;99.958;2022-09-09T10:17:43;1.13;;;0.30;;
74229;SDS011;62589;12.568;99.958;2022-09-09T10:23:32;17.48;;;9.02;;
74229;SDS011;62589;12.568;99.958;2022-09-09T10:26:29;19.20;;;8.93;;
74229;SDS011;62589;12.568;99.958;2022-09-09T10:32:33;34.65;;;17.75;;
74229;SDS011;62589;12.568;99.958;2022-09-09T10:49:51;2.65;;;1.23;;
74229;SDS011;62589;12.568;99.958;2022-09-09T10:55:24;7.43;;;4.07;;
74229;SDS011;62589;12.568;99.958;2022-09-09T10:57:58;9.68;;;6.45;;
74229;SDS011;62589;12.568;99.958;2022-09-09T11:03:22;11.07;;;5.97;;
74229;SDS011;62589;12.568;99.958;2022-09-09T11:06:00;9.10;;;5.40;;
74229;SDS011;62589;12.568;99.958;2022-09-09T11:08:32;21.88;;;10.98;;
74229;SDS011;62589;12.568;99.958;2022-09-09T11:11:08;27.63;;;11.93;;
74229;SDS011;62589;12.568;99.958;2022-09-09T11:14:02;20.73;;;9.57;;
74229;SDS011;62589;12.568;99.958;2022-09-09T11:25:09;20.42;;;10.07;;
74229;SDS011;62589;12.568;99.958;2022-09-09T11:39:58;16.80;;;8.15;;
74229;SDS011;62589;12.568;99.958;2022-09-09T11:42:49;31.73;;;15.27;;
74229;SDS011;62589;12.568;99.958;2022-09-09T11:45:51;19.83;;;9.98;;
74229;SDS011;62589;12.568;99.958;2022-09-09T11:48:26;29.40;;;13.88;;
74229;SDS011;62589;12.568;99.958;2022-09-09T11:51:13;10.05;;;4.78;;
74229;SDS011;62589;12.568;99.958;2022-09-09T11:53:56;54.83;;;27.77;;
74229;SDS011;62589;12.568;99.958;2022-09-09T11:56:30;25.75;;;14.48;;
74229;SDS011;62589;12.568;99.958;2022-09-09T12:01:59;10.23;;;5.97;;
74229;SDS011;62589;12.568;99.958;2022-09-09T12:04:39;5.90;;;4.05;;
74229;SDS011;62589;12.568;99.958;2022-09-09T12:13:08;2.40;;;1.63;;
74229;SDS011;62589;12.568;99.958;2022-09-09T12:15:49;2.30;;;0.98;;
74229;SDS011;62589;12.568;99.958;2022-09-09T12:24:19;1.88;;;1.20;;
74229;SDS011;62589;12.568;99.958;2022-09-09T12:29:59;2.45;;;1.33;;
74229;SDS011;62589;12.568;99.958;2022-09-09T12:32:30;2.75;;;1.30;;
74229;SDS011;62589;12.568;99.958;2022-09-09T12:34:59;2.25;;;1.10;;
74229;SDS011;62589;12.568;99.958;2022-09-09T12:37:40;1.58;;;1.00;;
74229;SDS011;62589;12.568;99.958;2022-09-09T12:40:29;2.25;;;1.00;;
74229;SDS011;62589;12.568;99.958;2022-09-09T12:43:00;5.45;;;1.65;;
74229;SDS011;62589;12.568;99.958;2022-09-09T12:45:45;3.30;;;1.65;;
74229;SDS011;62589;12.568;99.958;2022-09-09T12:48:17;3.30;;;1.70;;
74229;SDS011;62589;12.568;99.958;2022-09-09T12:50:48;3.92;;;1.50;;
74229;SDS011;62589;12.568;99.958;2022-09-09T12:56:05;1.83;;;1.02;;
74229;SDS011;62589;12.568;99.958;2022-09-09T12:58:36;2.85;;;0.85;;
74229;SDS011;62589;12.568;99.958;2022-09-09T13:01:06;1.80;;;0.82;;
74229;SDS011;62589;12.568;99.958;2022-09-09T13:03:45;1.63;;;0.65;;
74229;SDS011;62589;12.568;99.958;2022-09-09T13:06:22;1.95;;;1.08;;
74229;SDS011;62589;12.568;99.958;2022-09-09T13:08:51;2.60;;;1.15;;
74229;SDS011;62589;12.568;99.958;2022-09-09T13:11:20;2.33;;;0.80;;
74229;SDS011;62589;12.568;99.958;2022-09-09T13:14:00;3.10;;;1.35;;
74229;SDS011;62589;12.568;99.958;2022-09-09T13:16:29;1.95;;;1.58;;
74229;SDS011;62589;12.568;99.958;2022-09-09T13:21:43;1.42;;;1.00;;
74229;SDS011;62589;12.568;99.958;2022-09-09T13:27:01;1.40;;;0.63;;
74229;SDS011;62589;12.568;99.958;2022-09-09T13:29:33;1.52;;;0.70;;
74229;SDS011;62589;12.568;99.958;2022-09-09T13:32:07;0.90;;;0.28;;
74229;SDS011;62589;12.568;99.958;2022-09-09T13:34:52;0.95;;;0.38;;
74229;SDS011;62589;12.568;99.958;2022-09-09T13:37:31;1.40;;;0.38;;
74229;SDS011;62589;12.568;99.958;2022-09-09T13:40:03;0.63;;;0.20;;
74229;SDS011;62589;12.568;99.958;2022-09-09T13:42:43;1.10;;;0.10;;
74229;SDS011;62589;12.568;99.958;2022-09-09T13:45:18;0.57;;;0.10;;
74229;SDS011;62589;12.568;99.958;2022-09-09T13:47:47;0.80;;;0.10;;
74229;SDS011;62589;12.568;99.958;2022-09-09T13:52:58;1.00;;;0.00;;
74229;SDS011;62589;12.568;99.958;2022-09-09T13:55:25;0.82;;;0.17;;
74229;SDS011;62589;12.568;99.958;2022-09-09T13:58:00;0.73;;;0.00;;
74229;SDS011;62589;12.568;99.958;2022-09-09T14:00:31;2.40;;;0.10;;
74229;SDS011;62589;12.568;99.958;2022-09-09T14:03:00;0.40;;;0.00;;
74229;SDS011;62589;12.568;99.958;2022-09-09T14:05:27;1.15;;;0.10;;
74229;SDS011;62589;12.568;99.958;2022-09-09T14:07:57;0.43;;;0.00;;
74229;SDS011;62589;12.568;99.958;2022-09-09T14:10:26;0.60;;;0.10;;
74229;SDS011;62589;12.568;99.958;2022-09-09T14:12:53;0.47;;;0.00;;
74229;SDS011;62589;12.568;99.958;2022-09-09T14:15:20;0.80;;;0.20;;
74229;SDS011;62589;12.568;99.958;2022-09-09T14:17:47;0.40;;;0.10;;
74229;SDS011;62589;12.568;99.958;2022-09-09T14:20:14;0.47;;;0.05;;
74229;SDS011;62589;12.568;99.958;2022-09-09T14:22:43;0.32;;;0.00;;
74229;SDS011;62589;12.568;99.958;2022-09-09T14:25:09;0.20;;;0.10;;
74229;SDS011;62589;12.568;99.958;2022-09-09T14:27:39;0.88;;;0.05;;
74229;SDS011;62589;12.568;99.958;2022-09-09T14:30:06;2.25;;;0.20;;
74229;SDS011;62589;12.568;99.958;2022-09-09T14:32:33;0.30;;;0.10;;
74229;SDS011;62589;12.568;99.958;2022-09-09T14:35:00;0.20;;;0.10;;
74229;SDS011;62589;12.568;99.958;2022-09-09T14:37:29;0.60;;;0.30;;
74229;SDS011;62589;12.568;99.958;2022-09-09T14:39:57;0.40;;;0.08;;
74229;SDS011;62589;12.568;99.958;2022-09-09T14:42:24;0.43;;;0.10;;
74229;SDS011;62589;12.568;99.958;2022-09-09T14:44:52;0.40;;;0.20;;
74229;SDS011;62589;12.568;99.958;2022-09-09T14:47:20;2.50;;;0.10;;
74229;SDS011;62589;12.568;99.958;2022-09-09T14:49:47;0.82;;;0.35;;
74229;SDS011;62589;12.568;99.958;2022-09-09T14:52:15;1.17;;;0.40;;
74229;SDS011;62589;12.568;99.958;2022-09-09T14:54:42;0.47;;;0.20;;
74229;SDS011;62589;12.568;99.958;2022-09-09T14:57:09;1.98;;;0.45;;
74229;SDS011;62589;12.568;99.958;2022-09-09T14:59:35;2.17;;;0.30;;
74229;SDS011;62589;12.568;99.958;2022-09-09T15:02:02;0.93;;;0.40;;
74229;SDS011;62589;12.568;99.958;2022-09-09T15:04:29;1.85;;;0.45;;
74229;SDS011;62589;12.568;99.958;2022-09-09T15:06:56;1.90;;;0.40;;
74229;SDS011;62589;12.568;99.958;2022-09-09T15:09:23;2.42;;;0.40;;
74229;SDS011;62589;12.568;99.958;2022-09-09T15:11:50;0.95;;;0.57;;
74229;SDS011;62589;12.568;99.958;2022-09-09T15:14:17;3.53;;;0.82;;
74229;SDS011;62589;12.568;99.958;2022-09-09T15:16:44;0.90;;;0.32;;
74229;SDS011;62589;12.568;99.958;2022-09-09T15:19:11;2.10;;;0.60;;
74229;SDS011;62589;12.568;99.958;2022-09-09T15:21:38;2.35;;;0.50;;
74229;SDS011;62589;12.568;99.958;2022-09-09T15:24:05;2.33;;;0.55;;
74229;SDS011;62589;12.568;99.958;2022-09-09T15:26:33;0.90;;;0.43;;
74229;SDS011;62589;12.568;99.958;2022-09-09T15:29:03;0.90;;;0.40;;
74229;SDS011;62589;12.568;99.958;2022-09-09T15:31:31;1.60;;;0.63;;
74229;SDS011;62589;12.568;99.958;2022-09-09T15:33:58;1.70;;;0.73;;
74229;SDS011;62589;12.568;99.958;2022-09-09T15:36:31;2.40;;;0.82;;
74229;SDS011;62589;12.568;99.958;2022-09-09T15:39:00;3.58;;;1.25;;
74229;SDS011;62589;12.568;99.958;2022-09-09T15:41:28;2.08;;;0.98;;
74229;SDS011;62589;12.568;99.958;2022-09-09T15:43:57;3.95;;;1.50;;
74229;SDS011;62589;12.568;99.958;2022-09-09T15:46:28;2.28;;;1.35;;
74229;SDS011;62589;12.568;99.958;2022-09-09T15:51:45;5.65;;;1.45;;
74229;SDS011;62589;12.568;99.958;2022-09-09T15:54:16;2.75;;;1.08;;
74229;SDS011;62589;12.568;99.958;2022-09-09T15:56:46;1.55;;;1.20;;
74229;SDS011;62589;12.568;99.958;2022-09-09T15:59:15;3.95;;;1.17;;
74229;SDS011;62589;12.568;99.958;2022-09-09T16:01:42;2.22;;;1.10;;
74229;SDS011;62589;12.568;99.958;2022-09-09T16:04:09;6.07;;;1.30;;
74229;SDS011;62589;12.568;99.958;2022-09-09T16:06:36;1.92;;;0.95;;
74229;SDS011;62589;12.568;99.958;2022-09-09T16:09:05;4.53;;;1.17;;
74229;SDS011;62589;12.568;99.958;2022-09-09T16:11:34;1.85;;;0.88;;
74229;SDS011;62589;12.568;99.958;2022-09-09T16:14:03;2.55;;;1.23;;
74229;SDS011;62589;12.568;99.958;2022-09-09T16:16:32;3.08;;;0.90;;
74229;SDS011;62589;12.568;99.958;2022-09-09T16:19:02;2.47;;;0.82;;
74229;SDS011;62589;12.568;99.958;2022-09-09T16:21:33;1.10;;;0.70;;
74229;SDS011;62589;12.568;99.958;2022-09-09T16:24:03;2.80;;;0.80;;
74229;SDS011;62589;12.568;99.958;2022-09-09T16:26:32;4.22;;;0.70;;
74229;SDS011;62589;12.568;99.958;2022-09-09T16:29:01;1.17;;;0.63;;
74229;SDS011;62589;12.568;99.958;2022-09-09T16:31:29;1.40;;;0.60;;
74229;SDS011;62589;12.568;99.958;2022-09-09T16:33:57;2.45;;;0.50;;
74229;SDS011;62589;12.568;99.958;2022-09-09T16:36:25;2.80;;;0.65;;
74229;SDS011;62589;12.568;99.958;2022-09-09T16:38:56;3.70;;;0.52;;
74229;SDS011;62589;12.568;99.958;2022-09-09T16:41:26;1.95;;;0.45;;
74229;SDS011;62589;12.568;99.958;2022-09-09T16:43:55;2.50;;;0.50;;
74229;SDS011;62589;12.568;99.958;2022-09-09T16:46:26;2.53;;;0.55;;
74229;SDS011;62589;12.568;99.958;2022-09-09T16:48:58;4.18;;;0.80;;
74229;SDS011;62589;12.568;99.958;2022-09-09T16:51:27;2.08;;;0.73;;
74229;SDS011;62589;12.568;99.958;2022-09-09T16:53:58;2.40;;;0.70;;
74229;SDS011;62589;12.568;99.958;2022-09-09T16:56:28;2.45;;;0.90;;
74229;SDS011;62589;12.568;99.958;2022-09-09T16:59:01;1.70;;;0.88;;
74229;SDS011;62589;12.568;99.958;2022-09-09T17:01:34;1.10;;;0.80;;
74229;SDS011;62589;12.568;99.958;2022-09-09T17:04:06;2.17;;;0.82;;
74229;SDS011;62589;12.568;99.958;2022-09-09T17:06:38;1.48;;;0.80;;
74229;SDS011;62589;12.568;99.958;2022-09-09T17:09:10;1.52;;;0.98;;
74229;SDS011;62589;12.568;99.958;2022-09-09T17:11:38;4.00;;;0.95;;
74229;SDS011;62589;12.568;99.958;2022-09-09T17:14:06;2.55;;;0.70;;
74229;SDS011;62589;12.568;99.958;2022-09-09T17:16:35;2.22;;;0.57;;
74229;SDS011;62589;12.568;99.958;2022-09-09T17:19:04;0.82;;;0.60;;
74229;SDS011;62589;12.568;99.958;2022-09-09T17:21:33;1.10;;;0.60;;
74229;SDS011;62589;12.568;99.958;2022-09-09T17:24:00;2.47;;;0.70;;
74229;SDS011;62589;12.568;99.958;2022-09-09T17:26:28;1.70;;;0.80;;
74229;SDS011;62589;12.568;99.958;2022-09-09T17:28:59;1.25;;;0.60;;
74229;SDS011;62589;12.568;99.958;2022-09-09T17:31:27;2.22;;;0.75;;
74229;SDS011;62589;12.568;99.958;2022-09-09T17:33:56;1.38;;;0.43;;